Time;durP1;ratioP1;P1;durP2;ratioP2;P2;SDS_P1;SDS_P2;PMS_P1;PMS_P2;Temp;Humidity;BMP_temperature;BMP_pressure;BME280_temperature;BME280_humidity;BME280_pressure;Samples;Min_cycle;Max_cycle;Signal;HPM_P1;HPM_P2
2022/09/06 00:03:04;;;;;;;3.15;2.03;;;;;;;24.75;48.05;100848.63;20683033;28;20046;-73
2022/09/06 00:13:06;;;;;;;2.03;1.87;;;;;;;24.73;48.16;100854.06;20681331;28;20053;-73
2022/09/06 00:23:07;;;;;;;2.25;1.95;;;;;;;24.70;48.08;100842.88;20688502;28;20046;-74
2022/09/06 00:33:07;;;;;;;3.45;2.10;;;;;;;24.68;48.16;100842.16;20679471;28;20049;-73
2022/09/06 00:43:08;;;;;;;3.70;2.05;;;;;;;24.69;48.33;100854.44;20683350;28;20404;-73
2022/09/06 00:53:08;;;;;;;3.47;2.00;;;;;;;24.65;48.51;100851.19;20679060;28;20100;-74
2022/09/06 01:03:09;;;;;;;2.25;1.98;;;;;;;24.65;48.27;100850.38;20682479;28;20117;-74
2022/09/06 01:13:12;;;;;;;2.20;2.00;;;;;;;24.64;48.09;100859.28;20675874;28;20050;-73
2022/09/06 01:23:19;;;;;;;1.83;1.73;;;;;;;24.61;48.25;100847.97;20679739;28;20291;-73
2022/09/06 01:33:27;;;;;;;2.60;1.83;;;;;;;24.61;48.03;100857.72;20677740;28;20579;-73
2022/09/06 01:43:36;;;;;;;2.08;1.80;;;;;;;24.58;48.07;100840.28;20674961;28;20405;-73
2022/09/06 01:53:58;;;;;;;1.85;1.73;;;;;;;24.57;48.22;100841.25;20677292;28;20128;-73
2022/09/06 02:04:24;;;;;;;1.98;1.80;;;;;;;24.56;48.06;100834.28;20693575;28;20040;-73
2022/09/06 02:14:50;;;;;;;1.80;1.70;;;;;;;24.53;48.34;100837.19;20696288;28;20041;-73
2022/09/06 02:24:52;;;;;;;1.88;1.63;;;;;;;24.54;48.08;100827.44;20691515;28;20046;-74
2022/09/06 02:34:55;;;;;;;1.83;1.73;;;;;;;24.54;48.13;100825.63;20687468;28;20116;-74
2022/09/06 02:44:55;;;;;;;1.88;1.67;;;;;;;24.52;48.44;100824.91;20686771;28;20044;-73
2022/09/06 02:54:55;;;;;;;1.90;1.80;;;;;;;24.50;48.19;100824.22;20672576;28;20508;-74
2022/09/06 03:04:56;;;;;;;1.60;1.50;;;;;;;24.49;48.29;100819.88;20669613;28;20072;-74
2022/09/06 03:14:56;;;;;;;2.80;1.92;;;;;;;24.49;48.20;100819.06;20673878;28;20046;-73
2022/09/06 03:24:57;;;;;;;1.70;1.60;;;;;;;24.49;48.26;100819.06;20677726;28;20041;-73
2022/09/06 03:34:58;;;;;;;1.90;1.60;;;;;;;24.48;47.93;100827.97;20680664;28;20602;-74
2022/09/06 03:44:58;;;;;;;2.07;1.90;;;;;;;24.45;48.26;100826.41;20679039;28;20119;-73
2022/09/06 03:54:58;;;;;;;1.70;1.60;;;;;;;24.45;48.29;100826.41;20671654;28;20443;-73
2022/09/06 04:04:59;;;;;;;2.20;1.83;;;;;;;24.44;48.31;100830.03;20682605;28;20030;-73
2022/09/06 04:14:59;;;;;;;3.33;1.60;;;;;;;24.48;48.04;100830.63;20670669;28;20030;-74
2022/09/06 04:25:00;;;;;;;2.15;1.80;;;;;;;24.50;48.70;100826.88;20698830;28;20038;-74
2022/09/06 04:35:00;;;;;;;4.57;2.33;;;;;;;24.49;49.14;100830.47;20703822;28;20088;-78
2022/09/06 04:45:01;;;;;;;3.72;2.05;;;;;;;24.51;48.88;100840.94;20667635;28;20125;-77
2022/09/06 04:55:01;;;;;;;7.95;2.60;;;;;;;24.56;48.89;100830.78;20665456;28;20034;-80
2022/09/06 05:05:03;;;;;;;13.65;4.15;;;;;;;24.41;45.99;100825.84;20631328;28;20054;-74
2022/09/06 05:15:04;;;;;;;10.05;3.55;;;;;;;24.45;46.94;100823.78;20663049;28;20034;-74
2022/09/06 05:25:07;;;;;;;6.43;3.40;;;;;;;24.51;46.81;100825.91;20666138;28;20046;-74
2022/09/06 05:35:08;;;;;;;7.00;3.17;;;;;;;24.50;46.83;100828.66;20660020;28;20640;-74
2022/09/06 05:45:08;;;;;;;4.00;3.00;;;;;;;24.50;46.70;100832.16;20667466;28;20440;-74
2022/09/06 05:55:09;;;;;;;5.80;3.07;;;;;;;24.50;46.55;100828.66;20714165;28;20044;-73
2022/09/06 06:05:09;;;;;;;3.70;2.80;;;;;;;24.51;45.57;100835.63;20714953;28;20050;-74
2022/09/06 06:15:10;;;;;;;4.78;3.00;;;;;;;24.55;45.57;100829.13;20681493;28;20037;-75
2022/09/06 06:25:11;;;;;;;3.85;2.80;;;;;;;24.57;45.55;100837.75;20671756;28;20061;-74
2022/09/06 06:35:12;;;;;;;7.57;3.05;;;;;;;24.55;44.78;100835.25;20684882;28;20046;-74
2022/09/06 06:45:12;;;;;;;6.47;3.05;;;;;;;24.55;44.50;100835.25;20688046;28;20080;-75
2022/09/06 06:55:12;;;;;;;3.90;3.03;;;;;;;24.57;44.83;100846.56;20676929;28;20042;-75
2022/09/06 07:05:13;;;;;;;5.50;3.03;;;;;;;24.62;45.20;100856.75;20662662;28;20496;-75
2022/09/06 07:15:13;;;;;;;4.97;3.00;;;;;;;24.59;44.43;100849.88;20658648;28;20057;-75
2022/09/06 07:25:15;;;;;;;4.53;3.22;;;;;;;24.62;44.20;100849.66;20679524;28;20038;-75
2022/09/06 07:35:15;;;;;;;5.53;3.05;;;;;;;24.60;44.88;100864.00;20677656;28;20077;-76
2022/09/06 07:45:16;;;;;;;7.65;2.88;;;;;;;24.58;45.01;100845.59;20669121;28;20133;-77
2022/09/06 07:55:16;;;;;;;5.75;3.00;;;;;;;24.59;45.27;100852.53;20670987;28;20093;-76
2022/09/06 08:05:16;;;;;;;5.05;2.50;;;;;;;24.58;45.65;100850.88;20674202;28;20049;-76
2022/09/06 08:15:17;;;;;;;3.95;2.78;;;;;;;24.58;45.59;100847.38;20674817;28;20045;-76
2022/09/06 08:25:17;;;;;;;7.07;2.80;;;;;;;24.62;45.72;100843.53;20655316;28;20053;-75
2022/09/06 08:35:18;;;;;;;4.80;2.60;;;;;;;24.63;45.69;100824.00;20664053;28;20091;-76
2022/09/06 08:45:18;;;;;;;3.50;2.78;;;;;;;24.64;45.91;100830.16;20674068;28;20049;-76
2022/09/06 08:55:56;;;;;;;4.75;2.90;;;;;;;24.62;46.21;100820.53;20655902;28;20034;-77
2022/09/06 09:05:58;;;;;;;5.35;2.45;;;;;;;24.67;46.06;100819.31;20680566;28;20050;-76
2022/09/06 09:15:59;;;;;;;4.85;2.85;;;;;;;24.70;45.93;100811.94;20670628;28;20556;-76
2022/09/06 09:26:04;;;;;;;4.93;2.58;;;;;;;24.74;45.96;100800.13;20681615;28;20093;-77
2022/09/06 09:36:09;;;;;;;4.85;2.60;;;;;;;24.77;46.11;100785.78;20606049;28;20151;-77
2022/09/06 09:46:22;;;;;;;4.55;2.53;;;;;;;24.85;45.83;100772.72;20608734;28;20539;-78
2022/09/06 09:56:37;;;;;;;3.65;2.47;;;;;;;24.84;46.01;100762.22;20648769;28;20531;-77
2022/09/06 10:06:37;;;;;;;7.95;2.53;;;;;;;24.87;45.98;100746.09;20654746;28;21213;-77
2022/09/06 10:16:44;;;;;;;6.43;2.40;;;;;;;24.86;45.53;100736.47;20667227;28;20159;-76
2022/09/06 10:26:54;;;;;;;3.13;2.70;;;;;;;24.94;45.04;100720.75;20676077;28;20425;-75
2022/09/06 10:37:09;;;;;;;4.72;2.60;;;;;;;25.01;45.43;100716.56;20683103;28;20074;-75
2022/09/06 10:47:12;;;;;;;3.13;2.42;;;;;;;25.11;45.29;100706.00;20677835;28;20029;-75
2022/09/06 10:57:19;;;;;;;5.13;2.90;;;;;;;25.18;45.04;100699.16;20670985;28;20030;-75
2022/09/06 11:07:29;;;;;;;3.25;2.22;;;;;;;25.27;44.88;100700.16;20668610;28;20381;-75
2022/09/06 11:17:47;;;;;;;3.13;2.80;;;;;;;25.30;45.18;100688.44;20673259;28;20034;-74
2022/09/06 11:27:54;;;;;;;6.07;3.00;;;;;;;25.42;44.96;100682.88;20661817;28;20042;-75
2022/09/06 11:38:01;;;;;;;5.82;2.78;;;;;;;25.44;44.32;100663.34;20664767;28;20064;-75
2022/09/06 11:48:33;;;;;;;4.80;3.10;;;;;;;25.49;43.58;100656.66;20669445;28;20042;-76
2022/09/06 11:58:48;;;;;;;5.60;3.10;;;;;;;25.63;43.18;100646.59;20671195;28;20053;-75
2022/09/06 12:08:51;;;;;;;3.85;2.83;;;;;;;25.78;41.52;100628.41;20680959;28;20038;-75
2022/09/06 12:18:54;;;;;;;3.53;2.90;;;;;;;25.99;40.69;100626.38;20704716;28;20041;-76
2022/09/06 12:28:55;;;;;;;3.20;2.67;;;;;;;26.05;41.03;100609.06;20687052;28;20042;-74
2022/09/06 12:39:02;;;;;;;5.03;3.13;;;;;;;26.07;43.28;100587.72;20694771;28;20041;-75
2022/09/06 12:49:09;;;;;;;5.45;2.60;;;;;;;26.11;39.37;100578.47;20685929;28;20045;-75
2022/09/06 12:59:28;;;;;;;6.07;2.30;;;;;;;26.14;37.39;100573.69;20682255;28;20092;-75
2022/09/06 13:09:30;;;;;;;2.53;1.73;;;;;;;26.27;37.50;100549.47;20683022;28;20049;-75
2022/09/06 13:19:39;;;;;;;5.80;2.08;;;;;;;26.29;38.33;100534.25;20664497;28;20038;-76
2022/09/06 13:30:03;;;;;;;4.53;1.67;;;;;;;26.31;37.23;100518.97;20662469;28;20050;-74
2022/09/06 13:40:39;;;;;;;1.90;1.80;;;;;;;26.25;37.20;100510.78;20680770;28;21000;-74
2022/09/06 13:50:40;;;;;;;4.00;2.00;;;;;;;26.17;37.78;100503.56;20661357;28;20046;-74
2022/09/06 14:00:41;;;;;;;4.47;1.90;;;;;;;26.10;36.95;100498.03;20683424;28;20804;-74
2022/09/06 14:10:42;;;;;;;5.45;2.10;;;;;;;26.02;37.56;100489.94;20698221;28;20087;-74
2022/09/06 14:20:53;;;;;;;6.37;2.53;;;;;;;25.94;37.59;100480.06;20695558;28;20057;-74
2022/09/06 14:30:53;;;;;;;8.48;2.47;;;;;;;25.92;38.38;100486.53;20665062;28;20279;-72
2022/09/06 14:41:02;;;;;;;4.20;2.25;;;;;;;25.91;38.88;100476.88;20666578;28;20046;-72
2022/09/06 14:51:12;;;;;;;5.43;2.20;;;;;;;25.92;39.84;100478.56;20682367;28;20046;-72
2022/09/06 15:01:16;;;;;;;5.10;2.17;;;;;;;25.88;39.23;100483.31;20698639;28;20049;-72
2022/09/06 15:11:33;;;;;;;5.50;2.25;;;;;;;25.85;39.60;100481.81;20677303;28;20140;-73
2022/09/06 15:21:33;;;;;;;4.28;2.42;;;;;;;25.85;38.49;100483.59;20682979;28;20129;-76
2022/09/06 15:31:34;;;;;;;3.85;2.00;;;;;;;25.79;39.24;100484.19;20688257;28;20112;-73
2022/09/06 15:41:39;;;;;;;3.30;2.30;;;;;;;25.47;42.81;100493.41;20673753;28;20050;-73
2022/09/06 15:51:41;;;;;;;3.45;2.50;;;;;;;25.34;43.55;100505.13;20658235;28;20295;-74
2022/09/06 16:01:41;;;;;;;3.17;2.80;;;;;;;25.22;44.52;100498.34;20685255;28;20168;-74
2022/09/06 16:11:42;;;;;;;7.63;3.70;;;;;;;25.23;44.53;100511.44;20667054;28;20413;-73
2022/09/06 16:21:42;;;;;;;4.27;3.20;;;;;;;25.29;44.72;100533.03;20661184;28;20496;-73
2022/09/06 16:31:44;;;;;;;8.23;2.92;;;;;;;25.35;44.62;100535.09;20646111;28;20061;-74
2022/09/06 16:41:45;;;;;;;7.47;4.25;;;;;;;25.29;45.22;100523.25;20655770;28;21857;-75
2022/09/06 16:51:47;;;;;;;11.27;4.88;;;;;;;25.32;45.42;100516.84;20656816;28;20042;-74
2022/09/06 17:01:48;;;;;;;32.03;17.17;;;;;;;25.29;45.35;100519.78;20647341;28;20042;-73
2022/09/06 17:11:48;;;;;;;23.88;13.90;;;;;;;25.23;45.72;100523.81;20664371;28;20046;-73
2022/09/06 17:21:49;;;;;;;23.03;9.23;;;;;;;25.19;46.40;100528.56;20635542;28;20043;-77
2022/09/06 17:31:49;;;;;;;9.68;5.57;;;;;;;25.02;46.55;100535.44;20685199;28;20100;-76
2022/09/06 17:41:53;;;;;;;10.63;5.55;;;;;;;25.05;46.24;100539.63;20660305;28;20057;-76
2022/09/06 17:51:53;;;;;;;22.42;6.75;;;;;;;24.85;47.29;100547.59;20604196;28;20069;-76
2022/09/06 18:01:54;;;;;;;10.63;4.57;;;;;;;24.72;47.17;100555.78;20667409;28;20064;-76
2022/09/06 18:11:54;;;;;;;6.82;4.00;;;;;;;24.65;47.27;100553.81;20683933;28;20109;-76
2022/09/06 18:21:55;;;;;;;6.60;4.30;;;;;;;24.67;47.37;100550.09;20670314;28;20053;-75
2022/09/06 18:31:56;;;;;;;5.63;3.80;;;;;;;24.68;47.67;100556.19;20674327;28;20100;-75
2022/09/06 18:42:00;;;;;;;3.28;2.97;;;;;;;24.56;47.94;100558.94;20677151;28;20046;-75
2022/09/06 18:52:02;;;;;;;4.88;3.58;;;;;;;24.76;47.54;100556.34;20665963;28;20091;-77
2022/09/06 19:02:02;;;;;;;5.45;3.17;;;;;;;24.84;47.56;100560.94;20673595;28;21140;-77
2022/09/06 19:12:03;;;;;;;4.90;3.45;;;;;;;24.87;47.39;100569.44;20700351;28;20069;-76
2022/09/06 19:22:05;;;;;;;4.63;3.37;;;;;;;24.90;47.51;100555.09;20686189;28;20038;-78
2022/09/06 19:32:05;;;;;;;3.47;3.17;;;;;;;24.92;47.57;100556.63;20717664;28;20077;-76
2022/09/06 19:42:06;;;;;;;4.88;3.20;;;;;;;24.94;47.28;100554.69;20709323;28;20681;-76
2022/09/06 19:52:08;;;;;;;4.63;3.00;;;;;;;24.96;47.44;100540.47;20704487;28;20045;-77
2022/09/06 20:02:09;;;;;;;4.55;2.95;;;;;;;24.94;47.56;100520.25;20695847;28;20408;-77
2022/09/06 20:12:11;;;;;;;3.17;2.80;;;;;;;24.96;47.81;100513.97;20680559;28;20076;-78
2022/09/06 20:22:12;;;;;;;3.53;2.85;;;;;;;24.95;47.63;100523.75;20692095;28;20038;-78
2022/09/06 20:32:13;;;;;;;3.30;2.83;;;;;;;24.97;47.49;100534.19;20668654;28;20042;-76
2022/09/06 20:42:13;;;;;;;2.97;2.63;;;;;;;24.96;47.55;100528.03;20679147;28;20663;-76
2022/09/06 20:52:14;;;;;;;3.22;2.72;;;;;;;24.99;47.38;100532.25;20672496;28;20034;-76
2022/09/06 21:02:15;;;;;;;3.35;2.60;;;;;;;24.98;47.53;100539.34;20668479;28;20057;-76
2022/09/06 21:12:15;;;;;;;2.83;2.40;;;;;;;24.99;47.53;100525.13;20672783;28;20041;-76
2022/09/06 21:22:16;;;;;;;3.28;2.92;;;;;;;25.01;48.09;100517.03;20673659;28;20100;-76
2022/09/06 21:32:17;;;;;;;;;;;;;;;24.98;47.81;100512.84;20674445;28;20038;-76
2022/09/06 21:42:17;;;;;;;4.75;2.80;;;;;;;25.03;47.83;100510.59;20681726;28;20380;-75
2022/09/06 21:52:18;;;;;;;2.90;2.60;;;;;;;25.06;48.15;100520.09;20672416;28;20049;-76
2022/09/06 22:02:19;;;;;;;2.53;2.33;;;;;;;25.03;47.97;100507.97;20675060;28;20463;-76
2022/09/06 22:12:19;;;;;;;3.50;2.77;;;;;;;25.05;48.08;100515.78;20649615;28;20056;-76
2022/09/06 22:22:19;;;;;;;2.65;2.45;;;;;;;25.02;48.03;100514.22;20673188;28;20054;-76
2022/09/06 22:32:20;;;;;;;4.22;2.75;;;;;;;25.03;48.05;100507.13;20670264;28;20049;-76
2022/09/06 22:42:20;;;;;;;2.60;2.40;;;;;;;25.02;47.81;100508.94;20670391;28;21947;-76
2022/09/06 22:52:21;;;;;;;2.92;2.38;;;;;;;25.02;47.97;100513.41;20680689;28;20054;-77
2022/09/06 23:02:21;;;;;;;2.47;2.13;;;;;;;25.01;48.07;100495.84;20671508;28;20050;-77
2022/09/06 23:12:22;;;;;;;3.55;2.50;;;;;;;25.00;47.94;100492.38;20673414;28;20263;-76
2022/09/06 23:22:22;;;;;;;2.50;2.30;;;;;;;24.97;48.02;100484.69;20661721;28;20053;-77
2022/09/06 23:32:24;;;;;;;3.70;2.30;;;;;;;24.98;48.00;100488.19;20669386;28;20045;-76
2022/09/06 23:42:25;;;;;;;2.65;2.28;;;;;;;24.97;47.83;100476.75;20676406;28;20137;-75
2022/09/06 23:52:25;;;;;;;2.40;2.20;;;;;;;24.98;48.02;100482.88;20653483;28;20089;-75
